createdAt,value
2022-08-26T00:01:45.052Z,100778.06
2022-08-26T00:04:12.607Z,100776.44
2022-08-26T00:06:42.497Z,100781.84
2022-08-26T00:09:15.915Z,100779.47
2022-08-26T00:11:43.454Z,100788.25
2022-08-26T00:14:09.931Z,100775.75
2022-08-26T00:16:36.597Z,100783.78
2022-08-26T00:19:07.352Z,100788.94
2022-08-26T00:21:35.219Z,100781.31
2022-08-26T00:24:04.300Z,100778.44
2022-08-26T00:26:30.834Z,100783.53
2022-08-26T00:28:57.352Z,100793.56
2022-08-26T00:31:23.797Z,100793.16
2022-08-26T00:33:50.362Z,100795.63
2022-08-26T00:36:20.350Z,100799.53
2022-08-26T00:38:47.574Z,100800.78
2022-08-26T00:41:14.068Z,100818.59
2022-08-26T00:43:47.569Z,100811.88
2022-08-26T00:46:19.649Z,100815.72
2022-08-26T00:48:50.024Z,100820.75
2022-08-26T00:51:29.512Z,100823.19
2022-08-26T00:54:04.182Z,100827.00
2022-08-26T00:56:36.201Z,100825.63
2022-08-26T00:59:06.809Z,100819.53
2022-08-26T01:01:33.316Z,100812.97
2022-08-26T01:04:01.036Z,100822.78
2022-08-26T01:06:28.459Z,100829.25
2022-08-26T01:08:56.109Z,100832.78
2022-08-26T01:11:24.221Z,100835.47
2022-08-26T01:14:00.234Z,100831.19
2022-08-26T01:16:26.945Z,100830.03
2022-08-26T01:18:59.617Z,100833.59
2022-08-26T01:21:48.636Z,100834.66
2022-08-26T01:24:16.209Z,100836.47
2022-08-26T01:26:44.756Z,100837.34
2022-08-26T01:29:15.922Z,100839.19
2022-08-26T01:31:46.551Z,100838.31
2022-08-26T01:34:19.661Z,100835.41
2022-08-26T01:36:51.501Z,100830.84
2022-08-26T01:39:18.860Z,100837.66
2022-08-26T01:41:46.338Z,100839.47
2022-08-26T01:44:19.916Z,100845.63
2022-08-26T01:46:48.751Z,100842.81
2022-08-26T01:49:18.222Z,100842.13
2022-08-26T01:51:46.577Z,100846.72
2022-08-26T01:54:14.009Z,100854.75
2022-08-26T01:56:41.064Z,100855.16
2022-08-26T01:59:10.800Z,100856.81
2022-08-26T02:01:38.977Z,100864.81
2022-08-26T02:04:24.493Z,100857.44
2022-08-26T02:06:51.641Z,100859.28
2022-08-26T02:09:20.391Z,100867.97
2022-08-26T02:11:47.815Z,100868.22
2022-08-26T02:14:19.554Z,100878.41
2022-08-26T02:16:49.027Z,100873.88
2022-08-26T02:19:23.870Z,100879.13
2022-08-26T02:21:52.722Z,100877.28
2022-08-26T02:24:24.610Z,100881.50
2022-08-26T02:26:55.855Z,100880.56
2022-08-26T02:29:26.579Z,100879.03
2022-08-26T02:31:54.839Z,100888.50
2022-08-26T02:34:26.546Z,100889.22
2022-08-26T02:36:59.101Z,100885.41
2022-08-26T02:39:25.645Z,100887.97
2022-08-26T02:41:52.240Z,100894.00
2022-08-26T02:44:19.314Z,100885.41
2022-08-26T02:46:47.047Z,100890.06
2022-08-26T02:49:14.934Z,100883.78
2022-08-26T02:51:41.458Z,100883.31
2022-08-26T02:54:09.755Z,100880.78
2022-08-26T02:56:36.449Z,100886.16
2022-08-26T02:59:02.992Z,100877.56
2022-08-26T03:01:32.983Z,100875.03
2022-08-26T03:04:01.130Z,100879.88
2022-08-26T03:06:28.458Z,100876.47
2022-08-26T03:08:55.811Z,100888.13
2022-08-26T03:11:23.748Z,100892.09
2022-08-26T03:13:51.926Z,100886.28
2022-08-26T03:16:18.905Z,100888.38
2022-08-26T03:18:52.077Z,100883.47
2022-08-26T03:21:20.929Z,100881.78
2022-08-26T03:23:47.573Z,100879.56
2022-08-26T03:26:15.839Z,100883.31
2022-08-26T03:29:01.270Z,100890.13
2022-08-26T03:31:29.628Z,100890.16
2022-08-26T03:33:59.501Z,100883.19
2022-08-26T03:36:26.653Z,100885.66
2022-08-26T03:38:53.574Z,100886.78
2022-08-26T03:41:21.324Z,100877.22
2022-08-26T03:43:50.786Z,100882.03
2022-08-26T03:46:18.649Z,100884.84
2022-08-26T03:48:45.789Z,100885.00
2022-08-26T03:51:14.849Z,100887.09
2022-08-26T03:53:45.731Z,100892.63
2022-08-26T03:56:12.804Z,100894.34
2022-08-26T03:58:39.462Z,100883.16
2022-08-26T04:01:09.856Z,100897.09
2022-08-26T04:03:54.904Z,100898.22
2022-08-26T04:06:21.289Z,100901.81
2022-08-26T04:08:48.081Z,100902.09
2022-08-26T04:11:20.725Z,100899.97
2022-08-26T04:13:48.413Z,100897.31
2022-08-26T04:16:17.474Z,100900.91
2022-08-26T04:18:46.604Z,100900.69
2022-08-26T04:21:15.327Z,100896.56
2022-08-26T04:23:47.152Z,100898.97
2022-08-26T04:26:15.181Z,100896.25
2022-08-26T04:28:41.784Z,100898.13
2022-08-26T04:31:12.534Z,100901.91
2022-08-26T04:33:41.659Z,100909.31
2022-08-26T04:36:09.327Z,100906.06
2022-08-26T04:38:35.838Z,100909.13
2022-08-26T04:41:03.349Z,100902.09
2022-08-26T04:43:31.993Z,100909.13
2022-08-26T04:46:01.851Z,100909.94
2022-08-26T04:48:30.681Z,100911.78
2022-08-26T04:50:58.557Z,100910.50
2022-08-26T04:53:26.278Z,100913.59
2022-08-26T04:55:55.200Z,100911.44
2022-08-26T04:58:24.477Z,100917.84
2022-08-26T05:00:54.264Z,100927.25
2022-08-26T05:03:22.100Z,100927.97
2022-08-26T05:05:50.207Z,100921.06
2022-08-26T05:08:18.152Z,100921.94
2022-08-26T05:10:52.477Z,100923.31
2022-08-26T05:13:20.681Z,100921.75
2022-08-26T05:15:48.633Z,100929.22
2022-08-26T05:18:17.874Z,100930.31
2022-08-26T05:20:49.810Z,100920.97
2022-08-26T05:23:17.582Z,100926.88
2022-08-26T05:25:47.246Z,100924.56
2022-08-26T05:28:16.031Z,100925.13
2022-08-26T05:30:43.017Z,100926.69
2022-08-26T05:33:12.022Z,100923.50
2022-08-26T05:35:39.504Z,100922.75
2022-08-26T05:38:12.464Z,100928.94
2022-08-26T05:40:44.586Z,100931.03
2022-08-26T05:43:13.419Z,100933.47
2022-08-26T05:45:46.284Z,100930.22
2022-08-26T05:48:13.963Z,100936.41
2022-08-26T05:50:46.370Z,100930.22
2022-08-26T05:53:14.481Z,100930.84
2022-08-26T05:55:45.067Z,100934.28
2022-08-26T05:58:12.627Z,100922.00
2022-08-26T06:00:39.978Z,100933.28
2022-08-26T06:03:08.941Z,100939.72
2022-08-26T06:05:39.980Z,100937.59
2022-08-26T06:08:19.190Z,100939.72
2022-08-26T06:10:55.791Z,100938.97
2022-08-26T06:13:30.240Z,100949.69
2022-08-26T06:15:59.999Z,100953.47
2022-08-26T06:18:36.214Z,100948.47
2022-08-26T06:21:11.969Z,100951.69
2022-08-26T06:23:57.215Z,100949.38
2022-08-26T06:26:25.953Z,100955.38
2022-08-26T06:28:52.818Z,100954.00
2022-08-26T06:31:19.383Z,100956.72
2022-08-26T06:33:45.940Z,100953.72
2022-08-26T06:36:19.429Z,100953.72
2022-08-26T06:38:50.749Z,100954.47
2022-08-26T06:41:21.460Z,100952.28
2022-08-26T06:43:48.568Z,100961.16
2022-08-26T06:46:18.106Z,100956.81
2022-08-26T06:48:45.837Z,100959.75
2022-08-26T06:51:18.939Z,100955.50
2022-08-26T06:53:47.350Z,100956.56
2022-08-26T06:56:17.571Z,100959.28
2022-08-26T06:58:44.408Z,100960.59
2022-08-26T07:01:22.930Z,100965.22
2022-08-26T07:03:51.105Z,100957.72
2022-08-26T07:06:21.689Z,100965.88
2022-08-26T07:08:54.057Z,100967.53
2022-08-26T07:11:20.657Z,100965.38
2022-08-26T07:13:47.778Z,100969.72
2022-08-26T07:16:17.413Z,100967.00
2022-08-26T07:18:44.944Z,100970.72
2022-08-26T07:21:14.287Z,100979.81
2022-08-26T07:23:41.374Z,100966.94
2022-08-26T07:26:11.770Z,100973.47
2022-08-26T07:28:38.293Z,100975.91
2022-08-26T07:31:12.898Z,100977.78
2022-08-26T07:33:40.596Z,100982.94
2022-08-26T07:36:08.962Z,100981.72
2022-08-26T07:38:36.528Z,100985.84
2022-08-26T07:41:03.697Z,100991.41
2022-08-26T07:43:30.259Z,100996.38
2022-08-26T07:45:57.718Z,100995.84
2022-08-26T07:48:24.641Z,101005.41
2022-08-26T07:50:53.830Z,100998.47
2022-08-26T07:53:21.675Z,101001.34
2022-08-26T07:55:51.172Z,101002.69
2022-08-26T07:58:19.109Z,101000.34
2022-08-26T08:00:47.400Z,101005.53
2022-08-26T08:03:15.123Z,101007.78
2022-08-26T08:05:42.415Z,101015.03
2022-08-26T08:08:26.889Z,101014.69
2022-08-26T08:10:56.447Z,101014.81
2022-08-26T08:13:23.619Z,101013.56
2022-08-26T08:15:50.445Z,101008.97
2022-08-26T08:18:17.976Z,101010.06
2022-08-26T08:21:04.652Z,101005.31
2022-08-26T08:23:35.430Z,101015.94
2022-08-26T08:26:04.542Z,101007.38
2022-08-26T08:28:31.573Z,101012.53
2022-08-26T08:30:58.595Z,101020.03
2022-08-26T08:33:26.529Z,101020.53
2022-08-26T08:35:53.015Z,101022.66
2022-08-26T08:38:19.446Z,101026.25
2022-08-26T08:40:46.541Z,101023.13
2022-08-26T08:43:29.822Z,101021.84
2022-08-26T08:46:00.557Z,101027.00
2022-08-26T08:48:41.203Z,101031.22
2022-08-26T08:51:23.371Z,101021.91
2022-08-26T08:53:54.826Z,101022.06
2022-08-26T08:56:28.167Z,101025.28
2022-08-26T08:59:17.087Z,101018.97
2022-08-26T09:02:11.934Z,101027.06
2022-08-26T09:05:19.940Z,101031.88
2022-08-26T09:07:58.636Z,101031.56
2022-08-26T09:10:36.143Z,101032.91
2022-08-26T09:13:07.887Z,101033.97
2022-08-26T09:15:53.098Z,101026.44
2022-08-26T09:18:27.938Z,101032.59
2022-08-26T09:20:57.408Z,101030.38
2022-08-26T09:23:25.247Z,101043.53
2022-08-26T09:25:56.983Z,101032.97
2022-08-26T09:28:25.673Z,101028.94
2022-08-26T09:31:27.530Z,101046.13
2022-08-26T09:34:17.566Z,101041.09
2022-08-26T09:36:57.637Z,101040.34
2022-08-26T09:39:26.556Z,101042.06
2022-08-26T09:42:23.391Z,101046.28
2022-08-26T09:45:03.483Z,101049.81
2022-08-26T09:47:38.770Z,101049.31
2022-08-26T09:50:23.623Z,101044.50
2022-08-26T09:53:12.929Z,101044.09
2022-08-26T09:55:42.081Z,101039.13
2022-08-26T09:58:13.650Z,101040.22
2022-08-26T10:00:43.616Z,101041.06
2022-08-26T10:03:12.753Z,101038.91
2022-08-26T10:05:56.413Z,101035.59
2022-08-26T10:08:36.755Z,101031.88
2022-08-26T10:11:14.455Z,101035.75
2022-08-26T10:13:45.073Z,101035.94
2022-08-26T10:16:33.331Z,101029.13
2022-08-26T10:19:12.686Z,101032.09
2022-08-26T10:22:07.556Z,101024.19
2022-08-26T10:24:41.566Z,101019.84
2022-08-26T10:27:23.467Z,101020.94
2022-08-26T10:29:55.531Z,101021.81
2022-08-26T10:32:37.357Z,101021.50
2022-08-26T10:35:11.555Z,101022.09
2022-08-26T10:38:01.674Z,101023.47
2022-08-26T10:40:49.475Z,101021.94
2022-08-26T10:43:41.339Z,101017.34
2022-08-26T10:46:17.279Z,101022.97
2022-08-26T10:48:52.983Z,101020.84
2022-08-26T10:51:28.856Z,101029.72
2022-08-26T10:54:02.279Z,101022.44
2022-08-26T10:56:43.534Z,101016.78
2022-08-26T10:59:40.630Z,101021.59
2022-08-26T11:02:14.720Z,101026.72
2022-08-26T11:05:00.947Z,101027.00
2022-08-26T11:07:56.096Z,101027.31
2022-08-26T11:10:23.560Z,101025.50
2022-08-26T11:13:03.996Z,101029.91
2022-08-26T11:15:30.818Z,101018.22
2022-08-26T11:18:00.879Z,101023.41
2022-08-26T11:20:27.736Z,101021.03
2022-08-26T11:22:56.277Z,101024.28
2022-08-26T11:25:30.804Z,101022.69
2022-08-26T11:27:59.826Z,101017.56
2022-08-26T11:30:42.665Z,101013.28
2022-08-26T11:33:10.320Z,101006.56
2022-08-26T11:35:37.489Z,101009.25
2022-08-26T11:38:15.355Z,101007.63
2022-08-26T11:40:56.231Z,101006.28
2022-08-26T11:43:26.308Z,101015.22
2022-08-26T11:46:05.728Z,101005.00
2022-08-26T11:48:37.239Z,101002.78
2022-08-26T11:51:10.504Z,101002.03
2022-08-26T11:53:39.569Z,101003.38
2022-08-26T11:56:20.962Z,100999.63
2022-08-26T11:58:48.755Z,100999.34
2022-08-26T12:01:27.303Z,101002.03
2022-08-26T12:03:59.805Z,100997.19
2022-08-26T12:06:32.813Z,101001.78
2022-08-26T12:09:02.504Z,101008.69
2022-08-26T12:11:32.872Z,101004.41
2022-08-26T12:14:19.796Z,101008.44
2022-08-26T12:16:47.077Z,101013.78
2022-08-26T12:19:27.391Z,101010.03
2022-08-26T12:22:08.935Z,101009.22
2022-08-26T12:24:35.727Z,101013.00
2022-08-26T12:27:11.481Z,101012.22
2022-08-26T12:29:39.627Z,101006.25
2022-08-26T12:32:13.428Z,101011.66
2022-08-26T12:34:42.244Z,101008.41
2022-08-26T12:37:12.100Z,101015.38
2022-08-26T12:39:42.097Z,101016.44
2022-08-26T12:42:17.367Z,101023.72
2022-08-26T12:45:03.728Z,101017.50
2022-08-26T12:47:42.632Z,101017.72
2022-08-26T12:50:36.630Z,101020.69
2022-08-26T12:53:14.774Z,101013.97
2022-08-26T12:55:44.341Z,101017.28
2022-08-26T12:58:28.925Z,101014.03
2022-08-26T13:01:06.671Z,101014.63
2022-08-26T13:03:45.573Z,101003.88
2022-08-26T13:06:26.602Z,101003.13
2022-08-26T13:08:54.836Z,101001.78
2022-08-26T13:11:30.438Z,101003.88
2022-08-26T13:13:58.726Z,100997.47
2022-08-26T13:16:25.737Z,100996.34
2022-08-26T13:18:58.819Z,100992.91
2022-08-26T13:21:37.285Z,100992.34
2022-08-26T13:24:16.548Z,100983.47
2022-08-26T13:26:44.940Z,100988.88
2022-08-26T13:29:12.257Z,100989.88
2022-08-26T13:31:41.305Z,100988.88
2022-08-26T13:34:10.688Z,100994.25
2022-08-26T13:36:37.657Z,100990.47
2022-08-26T13:39:05.347Z,100998.44
2022-08-26T13:41:32.611Z,100995.75
2022-08-26T13:43:59.675Z,100990.38
2022-08-26T13:46:27.701Z,100992.50
2022-08-26T13:51:22.795Z,100992.94
2022-08-26T13:53:50.199Z,100988.38
2022-08-26T13:56:16.806Z,100993.19
2022-08-26T13:58:43.255Z,100995.09
2022-08-26T14:01:13.713Z,100998.03
2022-08-26T14:03:40.288Z,100998.69
2022-08-26T14:06:06.819Z,100997.09
2022-08-26T14:08:33.421Z,100999.25
2022-08-26T14:11:00.121Z,100996.53
2022-08-26T14:13:26.738Z,100990.78
2022-08-26T14:15:53.644Z,100996.75
2022-08-26T14:18:26.415Z,100991.06
2022-08-26T14:20:55.104Z,101005.59
2022-08-26T14:23:22.574Z,101000.72
2022-08-26T14:25:49.364Z,100999.63
2022-08-26T14:28:15.934Z,100995.31
2022-08-26T14:30:44.395Z,100994.25
2022-08-26T14:33:13.177Z,100989.84
2022-08-26T14:35:40.435Z,100994.41
2022-08-26T14:38:14.878Z,100995.75
2022-08-26T14:40:44.599Z,100986.88
2022-08-26T14:43:15.700Z,100993.56
2022-08-26T14:45:45.042Z,100989.25
2022-08-26T14:48:11.575Z,100989.22
2022-08-26T14:50:38.329Z,100993.50
2022-08-26T14:53:23.549Z,100994.72
2022-08-26T14:55:50.548Z,100991.13
2022-08-26T14:58:17.097Z,100981.97
2022-08-26T15:00:43.690Z,100977.09
2022-08-26T15:03:10.308Z,100966.75
2022-08-26T15:05:37.037Z,100972.16
2022-08-26T15:08:10.186Z,100971.91
2022-08-26T15:10:37.353Z,100981.84
2022-08-26T15:13:04.002Z,100982.09
2022-08-26T15:15:30.639Z,100982.94
2022-08-26T15:17:58.035Z,100980.25
2022-08-26T15:20:24.922Z,100971.66
2022-08-26T15:22:51.353Z,100976.47
2022-08-26T15:25:19.674Z,100981.34
2022-08-26T15:27:46.302Z,100984.31
2022-08-26T15:30:13.350Z,100976.22
2022-08-26T15:32:39.846Z,100978.59
2022-08-26T15:35:09.133Z,100978.28
2022-08-26T15:37:36.163Z,100976.09
2022-08-26T15:40:03.141Z,100976.34
2022-08-26T15:42:29.812Z,100974.72
2022-08-26T15:44:56.338Z,100976.91
2022-08-26T15:47:23.743Z,100973.63
2022-08-26T15:49:50.303Z,100976.72
2022-08-26T15:52:17.498Z,100980.25
2022-08-26T15:54:44.038Z,100977.25
2022-08-26T15:57:12.364Z,100977.97
2022-08-26T15:59:40.181Z,100969.59
2022-08-26T16:02:07.346Z,100965.00
2022-08-26T16:04:34.056Z,100968.22
2022-08-26T16:07:00.691Z,100964.66
2022-08-26T16:09:28.731Z,100964.66
2022-08-26T16:11:56.131Z,100962.75
2022-08-26T16:14:23.641Z,100972.63
2022-08-26T16:16:50.514Z,100971.78
2022-08-26T16:19:17.523Z,100973.91
2022-08-26T16:21:44.626Z,100976.78
2022-08-26T16:24:11.890Z,100973.50
2022-08-26T16:26:40.468Z,100975.69
2022-08-26T16:29:10.133Z,100969.78
2022-08-26T16:31:38.332Z,100970.28
2022-08-26T16:34:05.921Z,100975.16
2022-08-26T16:36:33.144Z,100971.31
2022-08-26T16:38:59.641Z,100972.97
2022-08-26T16:41:28.535Z,100976.19
2022-08-26T16:43:55.776Z,100976.47
2022-08-26T16:46:25.677Z,100978.34
2022-08-26T16:48:54.183Z,100986.38
2022-08-26T16:51:24.792Z,100987.06
2022-08-26T16:53:51.863Z,100992.25
2022-08-26T16:56:21.532Z,100998.09
2022-08-26T16:58:48.598Z,101002.44
2022-08-26T17:01:15.963Z,100999.19
2022-08-26T17:03:42.894Z,101007.78
2022-08-26T17:06:10.053Z,101005.06
2022-08-26T17:08:38.410Z,101006.66
2022-08-26T17:11:05.723Z,101006.63
2022-08-26T17:13:35.516Z,101014.91
2022-08-26T17:16:04.717Z,101017.91
2022-08-26T17:18:31.474Z,101016.69
2022-08-26T17:21:01.988Z,101015.69
2022-08-26T17:23:28.565Z,101024.72
2022-08-26T17:25:55.085Z,101028.50
2022-08-26T17:28:21.577Z,101025.28
2022-08-26T17:30:48.115Z,101031.63
2022-08-26T17:33:14.810Z,101024.03
2022-08-26T17:35:43.733Z,101034.47
2022-08-26T17:38:10.392Z,101033.16
2022-08-26T17:40:37.129Z,101033.03
2022-08-26T17:43:03.770Z,101025.66
2022-08-26T17:45:30.324Z,101027.78
2022-08-26T17:47:57.246Z,101019.97
2022-08-26T17:50:24.347Z,101029.41
2022-08-26T17:52:50.862Z,101030.72
2022-08-26T17:55:18.445Z,101035.78
2022-08-26T17:57:53.630Z,101037.91
2022-08-26T18:00:26.081Z,101045.28
2022-08-26T18:02:54.112Z,101038.81
2022-08-26T18:05:20.934Z,101045.28
2022-08-26T18:07:48.328Z,101041.25
2022-08-26T18:10:17.557Z,101037.22
2022-08-26T18:12:44.077Z,101044.94
2022-08-26T18:15:12.641Z,101040.81
2022-08-26T18:17:39.881Z,101039.75
2022-08-26T18:20:09.430Z,101036.59
2022-08-26T18:22:36.039Z,101040.63
2022-08-26T18:25:04.803Z,101033.56
2022-08-26T18:27:32.528Z,101037.06
2022-08-26T18:29:59.118Z,101043.81
2022-08-26T18:32:25.617Z,101042.69
2022-08-26T18:34:52.094Z,101042.69
2022-08-26T18:37:18.782Z,101043.50
2022-08-26T18:39:45.294Z,101044.25
2022-08-26T18:42:11.826Z,101045.56
2022-08-26T18:44:38.483Z,101045.56
2022-08-26T18:47:05.218Z,101047.94
2022-08-26T18:49:31.825Z,101050.84
2022-08-26T18:51:58.276Z,101045.44
2022-08-26T18:54:24.781Z,101049.44
2022-08-26T18:56:51.750Z,101053.47
2022-08-26T18:59:18.324Z,101048.13
2022-08-26T19:01:45.370Z,101045.66
2022-08-26T19:04:15.541Z,101048.13
2022-08-26T19:06:43.354Z,101052.28
2022-08-26T19:09:11.109Z,101057.13
2022-08-26T19:11:42.826Z,101052.09
2022-08-26T19:14:13.503Z,101058.78
2022-08-26T19:16:42.233Z,101064.88
2022-08-26T19:19:09.158Z,101058.78
2022-08-26T19:21:37.495Z,101061.88
2022-08-26T19:24:07.224Z,101065.03
2022-08-26T19:26:34.272Z,101065.69
2022-08-26T19:29:01.032Z,101062.06
2022-08-26T19:31:28.140Z,101061.41
2022-08-26T19:33:54.666Z,101061.91
2022-08-26T19:36:23.773Z,101062.47
2022-08-26T19:38:50.810Z,101063.94
2022-08-26T19:41:26.569Z,101070.94
2022-08-26T19:44:05.358Z,101064.75
2022-08-26T19:46:32.191Z,101064.75
2022-08-26T19:48:58.810Z,101073.28
2022-08-26T19:51:33.603Z,101067.94
2022-08-26T19:54:01.492Z,101067.38
2022-08-26T19:56:28.682Z,101072.03
2022-08-26T19:58:56.068Z,101066.69
2022-08-26T20:01:23.553Z,101070.66
2022-08-26T20:03:50.562Z,101063.44
2022-08-26T20:06:17.693Z,101075.19
2022-08-26T20:08:45.057Z,101070.81
2022-08-26T20:11:16.118Z,101062.47
2022-08-26T20:13:43.548Z,101066.19
2022-08-26T20:16:12.684Z,101068.47
2022-08-26T20:18:59.352Z,101069.53
2022-08-26T20:21:26.399Z,101076.09
2022-08-26T20:24:00.387Z,101072.63
2022-08-26T20:26:28.769Z,101079.84
2022-08-26T20:28:55.914Z,101077.63
2022-08-26T20:31:23.007Z,101079.59
2022-08-26T20:33:50.509Z,101086.16
2022-08-26T20:36:18.897Z,101085.78
2022-08-26T20:38:45.955Z,101082.19
2022-08-26T20:41:13.295Z,101088.41
2022-08-26T20:43:40.446Z,101087.13
2022-08-26T20:46:08.354Z,101092.63
2022-08-26T20:48:45.771Z,101097.50
2022-08-26T20:51:12.697Z,101099.13
2022-08-26T20:53:39.489Z,101096.84
2022-08-26T20:56:08.819Z,101106.56
2022-08-26T20:58:36.250Z,101094.25
2022-08-26T21:01:07.242Z,101096.69
2022-08-26T21:03:34.683Z,101093.34
2022-08-26T21:06:01.360Z,101094.47
2022-08-26T21:08:27.810Z,101095.84
2022-08-26T21:10:54.390Z,101092.66
2022-08-26T21:13:20.839Z,101089.22
2022-08-26T21:15:47.267Z,101093.75
2022-08-26T21:18:13.763Z,101102.88
2022-08-26T21:20:40.207Z,101097.16
2022-08-26T21:23:06.619Z,101096.38
2022-08-26T21:25:33.093Z,101097.16
2022-08-26T21:27:59.557Z,101099.84
2022-08-26T21:30:25.972Z,101099.75
2022-08-26T21:32:52.478Z,101097.66
2022-08-26T21:35:18.969Z,101102.88
2022-08-26T21:37:45.647Z,101101.84
2022-08-26T21:40:12.466Z,101108.81
2022-08-26T21:42:39.053Z,101100.66
2022-08-26T21:45:06.783Z,101115.00
2022-08-26T21:47:33.327Z,101112.56
2022-08-26T21:49:59.939Z,101114.28
2022-08-26T21:52:26.543Z,101119.06
2022-08-26T21:54:57.642Z,101119.78
2022-08-26T21:57:24.253Z,101122.84
2022-08-26T21:59:51.013Z,101125.63
2022-08-26T22:02:17.550Z,101134.25
2022-08-26T22:04:48.588Z,101126.47
2022-08-26T22:07:17.336Z,101131.34
2022-08-26T22:09:44.562Z,101126.00
2022-08-26T22:12:12.593Z,101127.16
2022-08-26T22:14:39.750Z,101125.19
2022-08-26T22:17:06.354Z,101117.19
2022-08-26T22:19:34.070Z,101127.63
2022-08-26T22:22:07.939Z,101120.78
2022-08-26T22:24:35.001Z,101126.00
2022-08-26T22:27:01.446Z,101129.38
2022-08-26T22:29:27.911Z,101124.03
2022-08-26T22:31:54.501Z,101128.09
2022-08-26T22:34:23.074Z,101134.28
2022-08-26T22:36:50.658Z,101132.38
2022-08-26T22:39:21.909Z,101129.59
2022-08-26T22:41:48.748Z,101126.69
2022-08-26T22:44:16.743Z,101140.75
2022-08-26T22:46:43.745Z,101142.84
2022-08-26T22:49:12.588Z,101146.19
2022-08-26T22:51:39.093Z,101137.50
2022-08-26T22:54:06.369Z,101135.84
2022-08-26T22:56:32.880Z,101142.47
2022-08-26T22:58:59.307Z,101142.00
2022-08-26T23:01:25.913Z,101138.50
2022-08-26T23:03:52.563Z,101131.38
2022-08-26T23:06:19.102Z,101131.47
2022-08-26T23:08:47.017Z,101131.28
2022-08-26T23:11:14.990Z,101134.38
2022-08-26T23:13:42.370Z,101131.38
2022-08-26T23:16:11.640Z,101132.72
2022-08-26T23:18:39.966Z,101139.34
2022-08-26T23:21:06.906Z,101129.16
2022-08-26T23:23:34.838Z,101133.75
2022-08-26T23:26:05.569Z,101137.38
2022-08-26T23:28:33.244Z,101134.81
2022-08-26T23:31:00.156Z,101137.94
2022-08-26T23:33:46.662Z,101142.38
2022-08-26T23:36:17.450Z,101138.16
2022-08-26T23:38:45.114Z,101127.13
2022-08-26T23:41:19.098Z,101125.72
2022-08-26T23:43:45.585Z,101123.66
2022-08-26T23:46:12.289Z,101131.66
2022-08-26T23:48:38.894Z,101132.69
2022-08-26T23:51:24.314Z,101128.81
2022-08-26T23:53:50.820Z,101129.72
2022-08-26T23:56:18.206Z,101134.41
2022-08-26T23:58:44.798Z,101127.56
